Time;durP1;ratioP1;P1;durP2;ratioP2;P2;SDS_P1;SDS_P2;PMS_P1;PMS_P2;Temp;Humidity;BMP_temperature;BMP_pressure;BME280_temperature;BME280_humidity;BME280_pressure;Samples;Min_cycle;Max_cycle;Signal;HPM_P1;HPM_P2
2023/06/27 00:01:30;;;;;;;8.23;5.77;;;20.60;99.90;;;;;;5061459;28;20554;-77
2023/06/27 00:04:00;;;;;;;6.50;5.50;;;20.50;99.90;;;;;;5060128;28;20812;-79
2023/06/27 00:06:29;;;;;;;9.57;6.40;;;20.50;99.90;;;;;;5074768;28;20553;-77
2023/06/27 00:08:57;;;;;;;7.37;6.30;;;20.50;99.90;;;;;;5074385;28;20513;-78
2023/06/27 00:11:25;;;;;;;10.93;7.83;;;20.50;99.90;;;;;;5074410;28;20856;-77
2023/06/27 00:13:58;;;;;;;8.20;5.07;;;20.40;99.90;;;;;;5074624;28;20551;-78
2023/06/27 00:16:27;;;;;;;6.57;3.53;;;20.40;99.90;;;;;;5074031;28;20976;-78
2023/06/27 00:19:00;;;;;;;5.57;3.37;;;20.30;99.90;;;;;;5073494;28;20457;-78
2023/06/27 00:21:29;;;;;;;6.17;4.50;;;20.30;99.90;;;;;;5088503;28;20469;-78
2023/06/27 00:23:57;;;;;;;8.77;5.13;;;20.30;99.90;;;;;;5091963;28;20843;-79
2023/06/27 00:26:24;;;;;;;3.63;3.23;;;20.30;99.90;;;;;;5094503;28;20469;-79
2023/06/27 00:28:51;;;;;;;4.50;4.10;;;20.30;99.90;;;;;;5095878;28;20473;-79
2023/06/27 00:31:18;;;;;;;4.43;3.83;;;20.30;99.90;;;;;;5093207;28;20465;-77
2023/06/27 00:33:46;;;;;;;6.90;2.90;;;20.30;99.90;;;;;;5092159;28;20466;-78
2023/06/27 00:36:14;;;;;;;8.23;3.60;;;20.20;99.90;;;;;;5093438;28;20473;-78
2023/06/27 00:38:43;;;;;;;5.47;2.87;;;20.20;99.90;;;;;;5092881;28;20850;-79
2023/06/27 00:41:10;;;;;;;9.80;6.13;;;20.10;99.90;;;;;;5065126;28;20505;-78
2023/06/27 00:43:37;;;;;;;5.70;3.37;;;20.20;99.90;;;;;;5064720;28;20948;-78
2023/06/27 00:46:07;;;;;;;3.40;2.50;;;20.10;99.90;;;;;;5064764;28;20531;-78
2023/06/27 00:48:37;;;;;;;5.13;3.20;;;20.10;99.90;;;;;;5073588;28;20462;-78
2023/06/27 00:51:04;;;;;;;4.20;3.00;;;20.10;99.90;;;;;;5072524;28;20493;-78
2023/06/27 00:53:32;;;;;;;3.87;3.53;;;20.00;99.90;;;;;;5089092;28;20557;-78
2023/06/27 00:56:00;;;;;;;7.50;5.43;;;20.00;99.90;;;;;;5092704;28;20473;-78
2023/06/27 00:58:28;;;;;;;7.17;4.57;;;20.00;99.90;;;;;;5092977;28;20955;-78
2023/06/27 01:00:55;;;;;;;4.23;3.87;;;20.00;99.90;;;;;;5092445;28;20468;-78
2023/06/27 01:03:22;;;;;;;6.83;4.27;;;19.90;99.90;;;;;;5088603;28;20473;-78
2023/06/27 01:05:49;;;;;;;5.17;3.10;;;19.90;99.90;;;;;;5093234;28;20476;-78
2023/06/27 01:08:25;;;;;;;3.27;3.07;;;19.90;99.90;;;;;;5095556;28;20497;-78
2023/06/27 01:11:00;;;;;;;5.27;2.63;;;19.80;99.90;;;;;;5089880;28;20981;-77
2023/06/27 01:13:37;;;;;;;3.00;2.80;;;19.80;99.90;;;;;;5096883;28;20835;-78
2023/06/27 01:16:06;;;;;;;5.27;2.47;;;19.80;99.90;;;;;;5097857;28;20473;-78
2023/06/27 01:18:36;;;;;;;4.30;2.57;;;19.80;99.90;;;;;;5097947;28;20958;-79
2023/06/27 01:21:19;;;;;;;3.43;2.43;;;19.80;99.90;;;;;;5098126;28;20461;-80
2023/06/27 01:23:53;;;;;;;4.17;2.50;;;19.80;99.90;;;;;;5096008;28;20468;-79
2023/06/27 01:26:27;;;;;;;3.73;3.43;;;19.70;99.90;;;;;;5097382;28;20459;-79
2023/06/27 01:28:54;;;;;;;6.80;3.30;;;19.70;99.90;;;;;;5096760;28;20783;-79
2023/06/27 01:31:28;;;;;;;3.67;3.00;;;19.70;99.90;;;;;;5096895;28;20779;-79
2023/06/27 01:34:00;;;;;;;3.27;2.57;;;19.60;99.90;;;;;;5096066;28;20495;-79
2023/06/27 01:36:35;;;;;;;2.80;2.47;;;19.60;99.90;;;;;;5097079;28;20484;-79
2023/06/27 01:39:08;;;;;;;3.03;2.77;;;19.60;99.90;;;;;;5096596;28;20472;-79
2023/06/27 01:41:38;;;;;;;3.80;2.80;;;19.60;99.90;;;;;;5096809;28;20469;-79
2023/06/27 01:44:08;;;;;;;4.10;2.90;;;19.60;99.90;;;;;;5096802;28;20556;-79
2023/06/27 01:46:35;;;;;;;6.70;3.70;;;19.50;99.90;;;;;;5096544;28;20552;-79
2023/06/27 01:49:04;;;;;;;3.80;3.53;;;19.60;99.90;;;;;;5096526;28;20522;-79
2023/06/27 01:51:32;;;;;;;5.87;3.23;;;19.60;99.90;;;;;;5097588;28;20457;-80
2023/06/27 01:54:00;;;;;;;10.10;3.70;;;19.50;99.90;;;;;;5095989;28;20476;-80
2023/06/27 01:56:28;;;;;;;5.93;2.70;;;19.50;99.90;;;;;;5097758;28;20538;-79
2023/06/27 01:58:55;;;;;;;6.47;3.27;;;19.40;99.90;;;;;;5096403;28;20514;-78
2023/06/27 02:01:22;;;;;;;3.83;2.70;;;19.40;99.90;;;;;;5096138;28;20529;-79
2023/06/27 02:03:49;;;;;;;6.70;3.13;;;19.40;99.90;;;;;;5096503;28;20473;-79
2023/06/27 02:06:16;;;;;;;5.07;3.20;;;19.40;99.90;;;;;;5095372;28;20549;-79
2023/06/27 02:08:45;;;;;;;3.93;2.87;;;19.30;99.90;;;;;;5096486;28;20505;-79
2023/06/27 02:11:12;;;;;;;6.73;3.47;;;19.30;99.90;;;;;;5095940;28;20540;-79
2023/06/27 02:13:41;;;;;;;4.07;3.07;;;19.30;99.90;;;;;;5096483;28;20857;-79
2023/06/27 02:16:08;;;;;;;8.73;4.20;;;19.30;99.90;;;;;;5095363;28;20796;-79
2023/06/27 02:18:35;;;;;;;6.30;3.57;;;19.30;99.90;;;;;;5095742;28;20556;-79
2023/06/27 02:21:05;;;;;;;9.57;3.13;;;19.30;99.90;;;;;;5095557;28;20984;-79
2023/06/27 02:23:35;;;;;;;6.67;3.63;;;19.20;99.90;;;;;;5096628;28;20466;-79
2023/06/27 02:26:03;;;;;;;4.70;2.90;;;19.20;99.90;;;;;;5095680;28;20465;-79
2023/06/27 02:28:33;;;;;;;6.17;3.60;;;19.20;99.90;;;;;;5096807;28;20468;-79
2023/06/27 02:31:01;;;;;;;6.10;2.63;;;19.10;99.90;;;;;;5095105;28;20504;-79
2023/06/27 02:33:28;;;;;;;9.13;3.37;;;19.10;99.90;;;;;;5095202;28;20465;-78
2023/06/27 02:35:57;;;;;;;4.63;3.20;;;19.10;99.90;;;;;;5095495;28;20469;-78
2023/06/27 02:38:24;;;;;;;10.07;3.13;;;19.10;99.90;;;;;;5095428;28;20474;-78
2023/06/27 02:40:51;;;;;;;4.93;3.50;;;19.10;99.90;;;;;;5095825;28;20489;-79
2023/06/27 02:43:18;;;;;;;6.00;3.23;;;19.10;99.90;;;;;;5091896;28;20522;-79
2023/06/27 02:45:45;;;;;;;6.07;3.20;;;19.00;99.90;;;;;;5095520;28;20878;-78
2023/06/27 02:48:13;;;;;;;6.10;3.60;;;19.00;99.90;;;;;;5095020;28;20490;-79
2023/06/27 02:50:40;;;;;;;5.70;4.20;;;19.00;99.90;;;;;;5095475;28;20479;-79
2023/06/27 02:53:07;;;;;;;4.73;3.53;;;19.00;99.90;;;;;;5094754;28;20784;-79
2023/06/27 02:55:34;;;;;;;5.97;3.53;;;19.00;99.90;;;;;;5095873;28;20470;-79
2023/06/27 02:58:01;;;;;;;5.53;3.37;;;19.00;99.90;;;;;;5094601;28;20472;-79
2023/06/27 03:00:29;;;;;;;6.43;3.53;;;18.90;99.90;;;;;;5095291;28;21027;-79
2023/06/27 03:02:56;;;;;;;5.60;3.03;;;18.90;99.90;;;;;;5095603;28;20473;-79
2023/06/27 03:05:24;;;;;;;8.50;3.87;;;18.90;99.90;;;;;;5093890;28;20465;-78
2023/06/27 03:07:51;;;;;;;8.03;3.67;;;18.90;99.90;;;;;;5095853;28;20481;-79
2023/06/27 03:10:18;;;;;;;4.47;3.10;;;18.90;99.90;;;;;;5094777;28;20465;-79
2023/06/27 03:12:45;;;;;;;4.37;3.07;;;18.90;99.90;;;;;;5096107;28;20473;-78
2023/06/27 03:15:12;;;;;;;4.80;3.30;;;18.80;99.90;;;;;;5094280;28;20481;-78
2023/06/27 03:17:40;;;;;;;6.53;3.70;;;18.90;99.90;;;;;;5095306;28;20489;-79
2023/06/27 03:20:08;;;;;;;5.40;3.77;;;18.80;99.90;;;;;;5094378;28;20524;-79
2023/06/27 03:22:36;;;;;;;4.00;3.20;;;18.80;99.90;;;;;;5095356;28;20464;-78
2023/06/27 03:25:04;;;;;;;9.30;3.57;;;18.80;99.90;;;;;;5094114;28;20461;-80
2023/06/27 03:27:31;;;;;;;6.27;3.93;;;18.80;99.90;;;;;;5096569;28;20468;-79
2023/06/27 03:29:58;;;;;;;5.77;3.10;;;18.80;99.90;;;;;;5096256;28;20523;-79
2023/06/27 03:32:25;;;;;;;5.57;3.20;;;18.80;99.90;;;;;;5095383;28;20524;-79
2023/06/27 03:34:54;;;;;;;6.57;3.60;;;18.80;99.90;;;;;;5094235;28;20462;-79
2023/06/27 03:37:20;;;;;;;3.93;3.17;;;18.80;99.90;;;;;;5094503;28;20507;-79
2023/06/27 03:39:49;;;;;;;7.70;3.87;;;18.80;99.90;;;;;;5096462;28;20473;-79
2023/06/27 03:42:16;;;;;;;5.43;3.60;;;18.70;99.90;;;;;;5094921;28;20811;-78
2023/06/27 03:44:43;;;;;;;6.00;4.17;;;18.70;99.90;;;;;;5096295;28;20469;-78
2023/06/27 03:47:10;;;;;;;8.33;3.63;;;18.70;99.90;;;;;;5095093;28;20469;-79
2023/06/27 03:49:37;;;;;;;9.00;3.53;;;18.70;99.90;;;;;;5095358;28;20533;-78
2023/06/27 03:52:05;;;;;;;5.53;3.33;;;18.70;99.90;;;;;;5094535;28;20528;-78
2023/06/27 03:54:33;;;;;;;7.80;3.63;;;18.70;99.90;;;;;;5094681;28;20485;-79
2023/06/27 03:57:01;;;;;;;9.50;4.43;;;18.70;99.90;;;;;;5094602;28;20484;-80
2023/06/27 03:59:28;;;;;;;4.93;4.10;;;18.80;99.90;;;;;;5098498;28;20542;-79
2023/06/27 04:01:55;;;;;;;3.53;3.10;;;18.80;99.90;;;;;;5095028;28;20992;-79
2023/06/27 04:04:22;;;;;;;11.13;4.20;;;18.80;99.90;;;;;;5093612;28;20476;-78
2023/06/27 04:06:49;;;;;;;8.87;4.90;;;18.80;99.90;;;;;;5094486;28;20469;-79
2023/06/27 04:09:16;;;;;;;8.17;3.97;;;18.80;99.90;;;;;;5093178;28;20470;-79
2023/06/27 04:11:43;;;;;;;7.87;4.53;;;18.80;99.90;;;;;;5094667;28;20461;-78
2023/06/27 04:14:17;;;;;;;3.77;3.30;;;18.80;99.90;;;;;;5093700;28;20472;-80
2023/06/27 04:16:44;;;;;;;9.53;4.33;;;18.80;99.90;;;;;;5093793;28;20548;-79
2023/06/27 04:19:11;;;;;;;5.33;3.60;;;18.80;99.90;;;;;;5093383;28;20539;-78
2023/06/27 04:21:38;;;;;;;3.90;2.97;;;18.90;99.90;;;;;;5093899;28;20473;-78
2023/06/27 04:24:09;;;;;;;9.23;4.57;;;18.80;99.90;;;;;;5093861;28;20473;-78
2023/06/27 04:26:36;;;;;;;7.30;4.43;;;18.90;99.90;;;;;;5093118;28;20919;-78
2023/06/27 04:29:04;;;;;;;8.77;3.83;;;18.90;99.90;;;;;;5093810;28;20489;-78
2023/06/27 04:31:32;;;;;;;7.07;4.43;;;18.90;99.90;;;;;;5093067;28;20947;-78
2023/06/27 04:33:59;;;;;;;13.37;5.10;;;18.90;99.90;;;;;;5093890;28;20562;-77
2023/06/27 04:36:27;;;;;;;8.43;4.17;;;18.90;99.90;;;;;;5093415;28;20478;-78
2023/06/27 04:38:54;;;;;;;8.80;3.60;;;18.90;99.90;;;;;;5093527;28;20458;-78
2023/06/27 04:41:21;;;;;;;10.30;3.53;;;19.00;99.90;;;;;;5091580;28;20801;-78
2023/06/27 04:43:48;;;;;;;12.13;4.37;;;19.00;99.90;;;;;;5100323;28;20512;-78
2023/06/27 04:46:15;;;;;;;9.97;3.40;;;19.00;99.90;;;;;;5094601;28;20477;-79
2023/06/27 04:48:47;;;;;;;10.53;4.10;;;19.00;99.90;;;;;;5096802;28;20919;-77
2023/06/27 04:51:14;;;;;;;5.60;3.50;;;19.00;99.90;;;;;;5097910;28;20970;-79
2023/06/27 04:53:41;;;;;;;7.20;4.30;;;19.10;99.90;;;;;;5096970;28;20465;-77
2023/06/27 04:56:11;;;;;;;6.23;3.20;;;19.10;99.90;;;;;;5097851;28;20484;-78
2023/06/27 04:58:38;;;;;;;4.23;3.37;;;19.10;99.90;;;;;;5097099;28;20971;-78
2023/06/27 05:01:05;;;;;;;12.47;4.63;;;19.20;99.90;;;;;;5097238;28;20469;-78
2023/06/27 05:03:32;;;;;;;4.33;3.00;;;19.20;99.90;;;;;;5097064;28;20469;-79
2023/06/27 05:06:02;;;;;;;7.40;4.20;;;19.20;99.90;;;;;;5097492;28;20517;-79
2023/06/27 05:08:30;;;;;;;7.30;3.47;;;19.20;99.90;;;;;;5097421;28;20966;-80
2023/06/27 05:10:57;;;;;;;9.43;4.10;;;19.30;99.90;;;;;;5097188;28;20813;-79
2023/06/27 05:13:24;;;;;;;5.70;3.80;;;19.40;99.90;;;;;;5096810;28;20544;-79
2023/06/27 05:15:51;;;;;;;8.50;4.00;;;19.40;99.90;;;;;;5097286;28;20469;-78
2023/06/27 05:18:24;;;;;;;4.00;2.90;;;19.40;99.90;;;;;;5097430;28;20519;-78
2023/06/27 05:20:51;;;;;;;9.63;4.07;;;19.40;99.90;;;;;;5096844;28;20919;-78
2023/06/27 05:23:20;;;;;;;6.60;3.80;;;19.50;99.90;;;;;;5096915;28;20530;-79
2023/06/27 05:25:48;;;;;;;9.40;5.27;;;19.50;99.90;;;;;;5096337;28;20807;-79
2023/06/27 05:28:15;;;;;;;11.70;3.87;;;19.50;99.90;;;;;;5096894;28;20488;-78
2023/06/27 05:30:42;;;;;;;9.73;3.00;;;19.60;99.90;;;;;;5095441;28;20465;-79
2023/06/27 05:33:09;;;;;;;4.67;3.87;;;19.60;99.90;;;;;;5096930;28;20465;-78
2023/06/27 05:35:36;;;;;;;5.23;3.50;;;19.60;99.90;;;;;;5096134;28;20492;-79
2023/06/27 05:38:03;;;;;;;8.70;3.77;;;19.70;99.90;;;;;;5095883;28;20493;-79
2023/06/27 05:40:31;;;;;;;12.20;3.77;;;19.70;99.90;;;;;;5096332;28;20533;-78
2023/06/27 05:42:58;;;;;;;9.20;3.50;;;19.80;99.90;;;;;;5096957;28;20461;-79
2023/06/27 05:45:25;;;;;;;7.43;3.30;;;19.80;99.90;;;;;;5096506;28;20469;-79
2023/06/27 05:47:52;;;;;;;9.13;3.53;;;19.80;99.90;;;;;;5096269;28;20473;-78
2023/06/27 05:50:19;;;;;;;9.10;4.50;;;19.90;99.90;;;;;;5096679;28;20468;-78
2023/06/27 05:52:46;;;;;;;13.67;5.60;;;19.90;99.90;;;;;;5096345;28;20557;-78
2023/06/27 05:55:13;;;;;;;7.13;3.50;;;20.00;99.90;;;;;;5096119;28;20466;-78
2023/06/27 05:57:42;;;;;;;6.77;3.90;;;20.10;99.90;;;;;;5100521;28;20548;-79
2023/06/27 06:00:13;;;;;;;11.03;3.87;;;20.20;99.90;;;;;;5095487;28;20502;-78
2023/06/27 06:02:42;;;;;;;8.20;3.50;;;20.20;99.90;;;;;;5096191;28;20882;-78
2023/06/27 06:05:10;;;;;;;10.43;5.67;;;20.30;99.90;;;;;;5095971;28;20473;-79
2023/06/27 06:07:42;;;;;;;8.83;5.17;;;20.40;99.90;;;;;;5096152;28;20577;-78
2023/06/27 06:10:09;;;;;;;7.20;4.53;;;20.50;99.90;;;;;;5096409;28;20468;-78
2023/06/27 06:12:37;;;;;;;4.97;3.07;;;20.60;99.90;;;;;;5096278;28;20473;-78
2023/06/27 06:15:06;;;;;;;12.00;4.80;;;20.70;99.90;;;;;;5095474;28;20469;-78
2023/06/27 06:17:34;;;;;;;7.60;3.70;;;20.70;99.90;;;;;;5096250;28;20535;-78
2023/06/27 06:20:01;;;;;;;9.00;5.50;;;20.90;99.90;;;;;;5095413;28;20514;-78
2023/06/27 06:22:28;;;;;;;7.83;3.50;;;21.00;99.90;;;;;;5095939;28;20478;-77
2023/06/27 06:24:55;;;;;;;4.83;3.50;;;21.20;99.90;;;;;;5094502;28;20531;-78
2023/06/27 06:27:22;;;;;;;10.43;4.03;;;21.40;99.90;;;;;;5095342;28;20466;-78
2023/06/27 06:29:49;;;;;;;5.97;3.50;;;21.50;99.90;;;;;;5095138;28;20473;-78
2023/06/27 06:32:17;;;;;;;5.17;3.00;;;21.50;99.90;;;;;;5096096;28;20530;-78
2023/06/27 06:34:44;;;;;;;10.40;4.17;;;21.60;99.90;;;;;;5095311;28;20461;-78
2023/06/27 06:37:11;;;;;;;13.47;4.80;;;21.60;99.90;;;;;;5095711;28;20497;-78
2023/06/27 06:39:39;;;;;;;6.37;2.87;;;21.60;99.90;;;;;;5095503;28;20523;-78
2023/06/27 06:42:06;;;;;;;5.27;4.00;;;21.60;99.90;;;;;;5095734;28;20777;-78
2023/06/27 06:44:33;;;;;;;8.63;3.73;;;21.70;99.90;;;;;;5095388;28;20480;-79
2023/06/27 06:47:00;;;;;;;5.67;3.60;;;21.70;99.90;;;;;;5094873;28;20453;-78
2023/06/27 06:49:29;;;;;;;3.83;2.40;;;21.80;99.90;;;;;;5095186;28;20466;-78
2023/06/27 06:51:55;;;;;;;5.17;2.50;;;21.90;99.90;;;;;;5094815;28;20499;-78
2023/06/27 06:54:22;;;;;;;5.10;3.10;;;22.00;99.90;;;;;;5095200;28;20490;-78
2023/06/27 06:56:49;;;;;;;8.53;4.43;;;22.10;99.90;;;;;;5094747;28;20480;-78
2023/06/27 06:59:17;;;;;;;5.33;3.30;;;22.20;99.90;;;;;;5094623;28;20882;-78
2023/06/27 07:01:44;;;;;;;8.03;4.50;;;22.20;99.90;;;;;;5093747;28;20614;-78
2023/06/27 07:04:11;;;;;;;7.90;2.70;;;22.20;99.90;;;;;;5095369;28;20526;-77
2023/06/27 07:06:40;;;;;;;7.50;3.20;;;22.10;99.90;;;;;;5095016;28;20518;-78
2023/06/27 07:09:06;;;;;;;5.50;2.30;;;22.10;99.90;;;;;;5094368;28;20449;-78
2023/06/27 07:11:34;;;;;;;6.73;3.30;;;22.00;99.90;;;;;;5095270;28;20811;-78
2023/06/27 07:14:01;;;;;;;5.53;2.30;;;22.00;99.90;;;;;;5094686;28;20526;-78
2023/06/27 07:16:27;;;;;;;7.83;2.50;;;22.10;99.90;;;;;;5095810;28;20522;-78
2023/06/27 07:18:54;;;;;;;5.53;2.47;;;22.30;99.90;;;;;;5095236;28;20582;-78
2023/06/27 07:21:21;;;;;;;3.90;2.50;;;22.40;99.90;;;;;;5094370;28;20591;-78
2023/06/27 07:23:51;;;;;;;6.50;3.30;;;22.60;99.90;;;;;;5094111;28;20545;-78
2023/06/27 07:26:18;;;;;;;5.20;2.40;;;22.80;99.90;;;;;;5094819;28;20458;-78
2023/06/27 07:28:45;;;;;;;6.40;3.60;;;22.80;99.90;;;;;;5094400;28;20462;-79
2023/06/27 07:31:12;;;;;;;2.67;2.37;;;22.80;99.90;;;;;;5094804;28;20470;-79
2023/06/27 07:33:39;;;;;;;5.30;2.50;;;22.90;99.90;;;;;;5094722;28;20553;-78
2023/06/27 07:36:06;;;;;;;6.27;2.90;;;22.90;99.90;;;;;;5094097;28;20459;-79
2023/06/27 07:38:33;;;;;;;5.83;3.37;;;22.90;99.90;;;;;;5094545;28;20470;-77
2023/06/27 07:41:01;;;;;;;5.90;2.40;;;22.90;99.90;;;;;;5094040;28;20545;-78
2023/06/27 07:43:28;;;;;;;4.50;2.40;;;22.90;99.90;;;;;;5094714;28;20829;-78
2023/06/27 07:45:55;;;;;;;7.40;2.40;;;22.90;99.90;;;;;;5093849;28;20814;-78
2023/06/27 07:48:22;;;;;;;3.60;2.27;;;22.90;99.90;;;;;;5095953;28;20461;-79
2023/06/27 07:50:49;;;;;;;6.20;2.60;;;22.90;99.90;;;;;;5094882;28;20479;-79
2023/06/27 07:53:17;;;;;;;4.17;2.40;;;22.90;99.90;;;;;;5094897;28;20461;-79
2023/06/27 07:55:44;;;;;;;12.03;3.50;;;22.80;99.90;;;;;;5096235;28;20526;-81
2023/06/27 07:58:12;;;;;;;7.03;2.13;;;22.70;99.90;;;;;;5097482;28;20539;-78
2023/06/27 08:00:39;;;;;;;3.03;1.73;;;22.70;99.90;;;;;;5095424;28;20558;-78
2023/06/27 08:03:06;;;;;;;5.23;2.10;;;22.70;99.90;;;;;;5094706;28;21950;-78
2023/06/27 08:05:38;;;;;;;3.73;2.10;;;22.80;99.90;;;;;;5095065;28;20470;-79
2023/06/27 08:08:05;;;;;;;3.63;2.10;;;22.90;99.90;;;;;;5094515;28;20766;-80
2023/06/27 08:10:34;;;;;;;2.50;1.83;;;23.10;99.90;;;;;;5095178;28;20527;-78
2023/06/27 08:13:04;;;;;;;3.03;1.40;;;23.30;99.90;;;;;;5094762;28;20473;-80
2023/06/27 08:15:32;;;;;;;13.63;2.83;;;23.50;99.90;;;;;;5095464;28;20480;-78
2023/06/27 08:18:00;;;;;;;3.63;1.87;;;23.50;99.90;;;;;;5094413;28;20495;-79
2023/06/27 08:20:27;;;;;;;3.97;1.97;;;23.50;99.90;;;;;;5094622;28;20550;-78
2023/06/27 08:22:54;;;;;;;4.53;2.03;;;23.40;99.90;;;;;;5097977;28;20465;-78
2023/06/27 08:25:22;;;;;;;4.93;2.10;;;23.50;99.90;;;;;;5094466;28;20476;-78
2023/06/27 08:27:49;;;;;;;6.30;1.90;;;23.60;99.90;;;;;;5094323;28;20469;-78
2023/06/27 08:30:16;;;;;;;3.90;2.77;;;23.80;99.50;;;;;;5094525;28;20911;-79
2023/06/27 08:32:44;;;;;;;3.43;2.17;;;23.90;99.20;;;;;;5094433;28;20472;-78
2023/06/27 08:35:12;;;;;;;5.70;2.17;;;24.10;97.80;;;;;;5093939;28;20463;-77
2023/06/27 08:37:39;;;;;;;3.10;2.10;;;24.10;97.40;;;;;;5094171;28;20802;-77
2023/06/27 08:40:09;;;;;;;5.27;1.87;;;24.10;97.80;;;;;;5093308;28;20473;-78
2023/06/27 08:42:36;;;;;;;2.97;1.60;;;24.00;98.40;;;;;;5094002;28;20966;-77
2023/06/27 08:45:03;;;;;;;5.30;3.70;;;23.90;98.50;;;;;;5092842;28;20946;-78
2023/06/27 08:47:34;;;;;;;4.03;2.23;;;23.80;98.40;;;;;;5093548;28;20472;-78
2023/06/27 08:50:04;;;;;;;6.03;2.20;;;23.70;98.00;;;;;;5093023;28;20502;-79
2023/06/27 08:52:37;;;;;;;3.63;1.90;;;23.60;97.80;;;;;;5093581;28;20472;-79
2023/06/27 08:55:11;;;;;;;3.40;2.00;;;23.60;98.10;;;;;;5092763;28;20518;-78
2023/06/27 08:57:39;;;;;;;2.90;1.73;;;23.50;97.80;;;;;;5094030;28;20469;-78
2023/06/27 09:00:09;;;;;;;3.13;1.60;;;23.40;97.60;;;;;;5092719;28;20461;-77
2023/06/27 09:02:38;;;;;;;3.17;1.90;;;23.40;97.90;;;;;;5093293;28;20459;-78
2023/06/27 09:05:08;;;;;;;3.27;1.70;;;23.40;97.80;;;;;;5092356;28;20477;-79
2023/06/27 09:07:35;;;;;;;1.63;1.53;;;23.40;97.70;;;;;;5093185;28;21008;-78
2023/06/27 09:10:03;;;;;;;5.77;2.20;;;23.40;97.80;;;;;;5092798;28;20466;-78
2023/06/27 09:12:32;;;;;;;4.90;2.00;;;23.50;97.90;;;;;;5093593;28;20518;-78
2023/06/27 09:15:01;;;;;;;5.40;1.83;;;23.40;98.00;;;;;;5092876;28;20467;-79
2023/06/27 09:17:28;;;;;;;3.40;1.93;;;23.30;97.40;;;;;;5092988;28;20489;-78
2023/06/27 09:19:55;;;;;;;4.17;1.83;;;23.20;97.80;;;;;;5093276;28;20811;-78
2023/06/27 09:22:24;;;;;;;2.03;1.30;;;23.10;98.10;;;;;;5092533;28;20514;-78
2023/06/27 09:25:14;;;;;;;5.27;1.63;;;23.00;98.50;;;;;;5092826;28;20514;-78
2023/06/27 09:27:43;;;;;;;1.80;1.10;;;22.80;99.70;;;;;;5093298;28;20465;-77
2023/06/27 09:30:12;;;;;;;1.50;1.30;;;22.60;99.90;;;;;;5092874;28;20465;-79
2023/06/27 09:32:56;;;;;;;3.93;2.00;;;22.50;99.90;;;;;;5093077;28;20466;-80
2023/06/27 09:35:24;;;;;;;2.37;1.97;;;22.30;99.90;;;;;;5096935;28;20473;-79
2023/06/27 09:37:55;;;;;;;3.13;2.00;;;22.20;99.90;;;;;;5096443;28;20548;-78
2023/06/27 09:40:27;;;;;;;4.90;2.90;;;22.00;99.90;;;;;;5096567;28;20477;-78
2023/06/27 09:42:55;;;;;;;4.80;2.67;;;22.00;99.90;;;;;;5096348;28;20825;-81
2023/06/27 09:45:23;;;;;;;4.47;2.60;;;21.90;99.90;;;;;;5096429;28;20477;-80
2023/06/27 09:47:52;;;;;;;4.40;2.10;;;21.90;99.90;;;;;;5095669;28;20476;-79
2023/06/27 09:50:26;;;;;;;4.90;1.90;;;21.90;99.90;;;;;;5096644;28;20504;-79
2023/06/27 09:52:55;;;;;;;5.30;2.30;;;21.90;99.90;;;;;;5096300;28;20465;-78
2023/06/27 09:55:23;;;;;;;2.50;2.27;;;22.00;99.90;;;;;;5096242;28;20530;-80
2023/06/27 09:57:50;;;;;;;2.77;2.57;;;22.00;99.90;;;;;;5096001;28;20530;-78
2023/06/27 10:00:20;;;;;;;3.37;2.50;;;22.00;99.90;;;;;;5096474;28;20461;-77
2023/06/27 10:02:49;;;;;;;3.40;2.03;;;22.10;99.90;;;;;;5096028;28;20470;-78
2023/06/27 10:05:17;;;;;;;2.60;1.87;;;22.20;99.90;;;;;;5096531;28;20539;-78
2023/06/27 10:07:45;;;;;;;5.00;2.40;;;22.20;99.90;;;;;;5095708;28;20530;-78
2023/06/27 10:10:14;;;;;;;4.93;2.50;;;22.30;99.90;;;;;;5096130;28;20928;-79
2023/06/27 10:12:42;;;;;;;2.03;1.60;;;22.40;99.90;;;;;;5096079;28;20497;-79
2023/06/27 10:15:11;;;;;;;3.27;1.50;;;22.50;99.90;;;;;;5095606;28;20792;-78
2023/06/27 10:17:38;;;;;;;3.27;1.90;;;22.50;99.90;;;;;;5096231;28;20526;-78
2023/06/27 10:20:10;;;;;;;3.10;1.70;;;22.60;99.90;;;;;;5095444;28;20485;-79
2023/06/27 10:22:40;;;;;;;2.50;2.00;;;22.70;99.90;;;;;;5095640;28;20472;-80
2023/06/27 10:25:08;;;;;;;3.67;2.17;;;22.90;99.90;;;;;;5095393;28;20466;-79
2023/06/27 10:27:42;;;;;;;2.70;2.00;;;23.00;99.90;;;;;;5095895;28;20474;-79
2023/06/27 10:30:14;;;;;;;2.30;2.07;;;23.10;99.90;;;;;;5095470;28;20974;-79
2023/06/27 10:32:44;;;;;;;3.50;2.57;;;23.10;99.70;;;;;;5096004;28;20829;-78
2023/06/27 10:35:13;;;;;;;2.47;2.20;;;23.10;99.90;;;;;;5095334;28;20464;-78
2023/06/27 10:37:42;;;;;;;4.30;2.30;;;23.00;99.90;;;;;;5095934;28;20854;-78
2023/06/27 10:40:10;;;;;;;4.20;1.97;;;22.90;99.20;;;;;;5086440;28;20889;-79
2023/06/27 10:42:38;;;;;;;6.27;2.47;;;22.90;99.90;;;;;;5108217;28;20829;-79
2023/06/27 10:45:10;;;;;;;5.53;2.63;;;22.90;99.90;;;;;;5094735;28;20788;-80
2023/06/27 10:47:39;;;;;;;7.70;3.00;;;22.80;99.90;;;;;;5095474;28;20490;-81
2023/06/27 10:50:12;;;;;;;4.03;2.17;;;22.50;99.90;;;;;;5094959;28;20462;-79
2023/06/27 10:52:40;;;;;;;4.43;1.80;;;22.30;99.90;;;;;;5095791;28;20799;-79
2023/06/27 10:55:21;;;;;;;2.73;1.50;;;22.00;99.90;;;;;;5095003;28;20547;-78
2023/06/27 10:57:58;;;;;;;3.30;1.97;;;21.80;99.90;;;;;;5095367;28;20466;-78
2023/06/27 11:00:29;;;;;;;5.00;2.20;;;21.60;99.90;;;;;;5094484;28;20558;-79
2023/06/27 11:02:57;;;;;;;2.57;2.27;;;21.40;99.90;;;;;;5095044;28;20482;-79
2023/06/27 11:05:44;;;;;;;3.23;2.57;;;21.20;99.90;;;;;;5094695;28;20453;-78
2023/06/27 11:08:13;;;;;;;3.60;3.00;;;21.10;99.90;;;;;;5094910;28;20462;-78
2023/06/27 11:10:51;;;;;;;2.70;2.50;;;21.00;99.90;;;;;;5094565;28;20469;-79
2023/06/27 11:13:22;;;;;;;2.60;2.30;;;21.00;99.90;;;;;;5094587;28;20473;-78
2023/06/27 11:15:51;;;;;;;2.13;1.93;;;21.00;99.90;;;;;;5094484;28;20488;-79
2023/06/27 11:18:19;;;;;;;7.50;1.90;;;21.00;99.90;;;;;;5094415;28;20461;-79
2023/06/27 11:20:46;;;;;;;4.20;2.17;;;21.00;99.90;;;;;;5094995;28;20497;-79
2023/06/27 11:23:15;;;;;;;3.87;2.20;;;21.00;99.90;;;;;;5094447;28;20465;-79
2023/06/27 11:25:43;;;;;;;2.80;2.53;;;21.00;99.90;;;;;;5085971;28;20986;-80
2023/06/27 11:28:11;;;;;;;2.70;2.23;;;21.10;99.90;;;;;;5093623;28;20474;-79
2023/06/27 11:30:39;;;;;;;3.60;3.20;;;21.10;99.90;;;;;;5094668;28;20582;-79
2023/06/27 11:33:11;;;;;;;4.27;2.63;;;21.10;99.90;;;;;;5093834;28;20496;-79
2023/06/27 11:35:40;;;;;;;5.03;2.63;;;21.20;99.90;;;;;;5093959;28;20465;-78
2023/06/27 11:38:08;;;;;;;2.50;2.30;;;21.20;99.90;;;;;;5090543;28;20479;-80
2023/06/27 11:40:35;;;;;;;3.60;1.90;;;21.30;99.90;;;;;;5102913;28;20857;-78
2023/06/27 11:43:03;;;;;;;2.23;2.03;;;21.30;99.90;;;;;;5097487;28;20465;-78
2023/06/27 11:45:31;;;;;;;1.80;1.70;;;21.30;99.90;;;;;;5093955;28;20985;-80
2023/06/27 11:48:02;;;;;;;2.10;1.77;;;21.40;99.90;;;;;;5095063;28;20811;-78
2023/06/27 11:50:30;;;;;;;2.40;1.80;;;21.50;99.90;;;;;;5093768;28;20470;-78
2023/06/27 11:52:58;;;;;;;3.33;2.03;;;21.50;99.90;;;;;;5094365;28;20534;-77
2023/06/27 11:55:26;;;;;;;2.10;1.90;;;21.50;99.90;;;;;;5093337;28;20465;-80
2023/06/27 11:57:54;;;;;;;2.03;1.50;;;21.60;99.90;;;;;;5094365;28;20486;-77
2023/06/27 12:00:24;;;;;;;2.33;1.80;;;21.80;99.90;;;;;;5094010;28;20461;-78
2023/06/27 12:02:51;;;;;;;2.70;1.67;;;21.80;99.90;;;;;;5093635;28;20458;-79
2023/06/27 12:05:21;;;;;;;3.40;1.80;;;22.00;99.90;;;;;;5093855;28;20466;-79
2023/06/27 12:08:01;;;;;;;3.37;2.83;;;22.10;99.90;;;;;;5093524;28;20453;-78
2023/06/27 12:10:28;;;;;;;2.37;1.93;;;22.30;99.90;;;;;;5093579;28;20489;-78
2023/06/27 12:12:57;;;;;;;3.00;1.37;;;22.40;99.90;;;;;;5094323;28;20461;-78
2023/06/27 12:15:27;;;;;;;1.53;1.20;;;22.40;99.90;;;;;;5093123;28;20500;-78
2023/06/27 12:17:59;;;;;;;4.03;1.40;;;22.40;99.90;;;;;;5093360;28;20526;-78
2023/06/27 12:20:39;;;;;;;1.50;0.90;;;22.20;99.90;;;;;;5093814;28;20477;-79
2023/06/27 12:23:06;;;;;;;1.20;1.10;;;22.10;99.90;;;;;;5094403;28;20826;-78
2023/06/27 12:25:33;;;;;;;1.70;1.33;;;21.90;99.90;;;;;;5093577;28;20548;-77
2023/06/27 12:28:02;;;;;;;8.50;1.33;;;21.70;99.90;;;;;;5095334;28;20539;-80
2023/06/27 12:30:29;;;;;;;3.43;1.30;;;21.60;99.90;;;;;;5093595;28;20531;-78
2023/06/27 12:32:56;;;;;;;2.60;1.00;;;21.40;99.90;;;;;;5096838;28;20473;-78
2023/06/27 12:35:23;;;;;;;1.90;1.53;;;21.30;99.90;;;;;;5094293;28;20896;-79
2023/06/27 12:37:52;;;;;;;2.83;1.70;;;21.20;99.90;;;;;;5093414;28;20552;-78
2023/06/27 12:40:22;;;;;;;4.20;2.40;;;21.10;99.90;;;;;;5094259;28;20469;-79
2023/06/27 12:42:51;;;;;;;3.00;2.40;;;21.10;99.90;;;;;;5099534;28;20461;-79
2023/06/27 12:45:18;;;;;;;2.13;1.90;;;21.10;99.90;;;;;;5095122;28;20544;-78
2023/06/27 12:47:45;;;;;;;4.10;2.97;;;21.00;99.90;;;;;;5094463;28;20519;-78
2023/06/27 12:50:13;;;;;;;3.60;2.70;;;21.00;99.90;;;;;;5093801;28;20868;-79
2023/06/27 12:52:42;;;;;;;3.40;3.10;;;21.10;99.90;;;;;;5094221;28;20488;-79